Airfield :
LOGIN :

Register | Disclaimer

   EN    FR    IT 

 










Legend :    VFR   Marginal VFR   IFR   Intensive IFR   Very Intensive IFR
Visi :
Ceiling :
>= 8 km
>= 3000ft
5 to 8 km
1000 to 3000 ft
1500m to 5 km
500 to 1000 ft
800 to 1500m
200 to 500 ft
< 800m
< 200 ft
Symbols :   Thunderstorms  Fog  Heavy snow  Heavy precipitations  Wind > 20 kt
SIGMETs :     Misc.  Thunderstorms  Icing  Turbulence  Mountain Waves  Volcanic Ashes






- Airport Elevation : 408 ft
- IATA code : FKB


EDSB - Karlsruhe Baden Baden

CURRENT METAR :
  • 261120Z 24005KT 210V270 6000 OVC006 00/M01 Q1034

EXPIRED METARs :
  • 261020Z 24008KT 6000 OVC005 M00/M01 Q1034
  • 260950Z 22005KT 6000 OVC006 M01/M02 Q1034
  • 260920Z 26005KT 220V320 5000 OVC005 M01/M01 Q1034

TAF TAF EDSB
Valid from the 26 at 12:00 until the 27 at 12:00 UTC


261100Z 2612/2712 22006KT 6000 OVC005
PROB40
TEMPO 2612/2617 BKN012
BECMG 2617/2619 BKN012
BECMG 2709/2711 21012KT BKN020



MET'MAP, your aeronautical weather chart ! - Copyright ORBIFLY December 2007 - Disclaimer

ORBIFLY MET'MAP TEAM :

Programming & Development : Alexandra Zaïnal
Original concept : Baudouin d'Aumeries
Technical & hardware support : Manuel Goepfert
Assistance : Marc-Olivier Méhu

Contact : metmap@orbifly.com




SOURCES & CREDITS :

   NOAA